CST,Max TemperatureF,Mean TemperatureF,Min TemperatureF,Max Dew PointF,MeanDew PointF,Min DewpointF,Max Humidity, Mean Humidity, Min Humidity, Max Sea Level PressureIn, Mean Sea Level PressureIn, Min Sea Level PressureIn, Max VisibilityMiles, Mean VisibilityMiles, Min VisibilityMiles, Max Wind SpeedMPH, Mean Wind SpeedMPH, Max Gust SpeedMPH,PrecipitationIn, CloudCover, Events, WindDirDegrees
2013-1-1,17,-2,-20,16,-3,-26,93,84,70,30.22,30.09,29.93,10,8,1,7,1,,0.00,5,Snow,194
2013-1-2,19,16,14,19,16,10,100,90,79,30.10,29.94,29.87,10,7,2,12,6,16,0.00,8,Snow,221
2013-1-3,17,10,3,12,7,0,92,82,68,30.21,30.11,29.92,10,9,2,12,7,18,0.00,4,Snow,265
2013-1-4,32,19,6,19,13,3,100,80,60,30.09,30.02,29.92,10,9,1,7,3,,0.00,0,,280
2013-1-5,23,12,1,19,11,0,100,88,74,30.05,29.96,29.87,10,10,5,10,2,,0.00,1,,338
2013-1-6,21,10,-2,10,5,-6,92,78,62,30.18,30.09,29.86,10,10,7,12,3,,0.00,1,Snow,184
2013-1-7,37,24,10,25,18,9,93,76,56,29.92,29.82,29.74,10,10,3,12,6,17,0.00,0,,222
2013-1-8,30,16,1,27,15,0,100,88,75,29.93,29.82,29.69,10,9,0,14,2,18,0.00,3,Fog-Snow,181
2013-1-9,32,26,21,25,19,16,86,73,59,30.28,30.08,29.77,10,10,10,17,9,31,0.00,4,,246
2013-1-10,42,32,21,30,23,16,93,70,36,30.18,29.98,29.68,10,9,4,22,10,28,0.00,2,Rain,159
2013-1-11,33,32,32,34,32,30,100,99,93,29.67,29.49,29.33,7,2,0,12,6,,0.38,8,Fog-Rain-Snow,145
2013-1-12,32,16,0,27,3,-6,100,78,67,30.07,29.76,29.33,10,6,1,13,6,22,0.00,6,Snow,293
2013-1-13,8,2,-5,1,-4,-9,85,79,67,30.17,30.09,30.03,10,10,7,9,4,,0.00,4,,294
2013-1-14,10,5,0,1,-2,-6,85,75,62,30.31,30.25,30.17,10,10,7,9,4,,0.00,6,Snow,228
2013-1-15,23,12,1,12,5,-2,92,72,50,30.19,30.00,29.64,10,10,5,14,6,22,0.00,4,Snow,192
2013-1-16,28,14,0,27,6,-11,93,66,38,30.25,29.85,29.57,10,9,2,15,9,23,0.00,4,Snow,307
2013-1-17,12,5,-2,1,-5,-13,85,70,55,30.33,30.29,30.21,10,9,2,10,3,,0.00,6,Snow,297
2013-1-18,24,15,6,18,12,1,100,86,74,30.20,29.85,29.72,10,8,1,10,4,,0.00,6,Snow,136
2013-1-19,28,12,-5,25,7,-11,100,79,56,30.22,29.85,29.65,10,7,2,22,7,32,0.00,4,Snow,300
2013-1-20,1,-6,-14,-8,-14,-20,84,72,60,30.33,30.27,30.23,10,8,2,13,6,18,0.00,3,Snow,290
2013-1-21,-7,-14,-20,-20,-23,-26,77,67,54,30.26,30.23,30.20,10,10,5,10,6,16,0.00,0,,286
2013-1-22,0,-12,-25,-9,-19,-33,83,70,55,30.30,30.25,30.16,10,10,7,8,2,,0.00,2,,236
2013-1-23,5,-4,-16,0,-11,-24,85,68,46,30.60,30.28,30.09,10,8,2,18,6,26,0.00,4,Snow,316
2013-1-24,5,-6,-16,-2,-15,-24,84,67,55,30.61,30.41,30.07,10,10,5,13,4,20,0.00,4,Snow,149
2013-1-25,12,2,-7,7,-1,-11,85,71,61,30.30,30.05,29.85,10,9,2,14,8,22,0.00,5,Snow,296
2013-1-26,12,0,-11,5,-4,-17,85,74,62,30.30,30.20,30.08,10,10,7,13,3,,0.00,3,,142
2013-1-27,28,19,10,25,14,5,86,75,64,30.08,29.93,29.82,10,10,10,10,5,,0.00,4,,121
2013-1-28,32,29,26,32,29,27,100,99,93,29.86,29.81,29.69,7,3,0,9,3,,0.11,8,Fog-Snow,144
2013-1-29,30,24,19,28,22,16,100,87,80,29.83,29.70,29.58,10,7,1,16,5,18,0.07,8,Snow,331
2013-1-30,19,10,1,16,3,-4,86,78,72,29.81,29.76,29.72,10,9,4,16,10,21,0.00,8,Snow,323
2013-1-31,1,-8,-16,-4,-13,-24,78,69,60,30.21,30.01,29.77,10,9,3,15,9,23,0.00,3,Snow,303